Time;durP1;ratioP1;P1;durP2;ratioP2;P2;SDS_P1;SDS_P2;PMS_P1;PMS_P2;Temp;Humidity;BMP_temperature;BMP_pressure;BME280_temperature;BME280_humidity;BME280_pressure;Samples;Min_cycle;Max_cycle;Signal;HPM_P1;HPM_P2
2023/09/09 00:01:07;;;;;;;16.55;14.10;;;23.30;99.90;;;;;;5070262;28;20039;-59
2023/09/09 00:03:34;;;;;;;17.05;14.65;;;23.30;99.90;;;;;;5069840;28;20040;-58
2023/09/09 00:06:08;;;;;;;14.77;13.02;;;23.20;99.90;;;;;;5069690;28;20040;-58
2023/09/09 00:08:33;;;;;;;;;;;23.20;99.90;;;;;;5070852;28;20055;-59
2023/09/09 00:10:59;;;;;;;16.55;14.20;;;23.10;99.90;;;;;;5071512;28;20011;-58
2023/09/09 00:13:25;;;;;;;15.38;13.88;;;23.00;99.90;;;;;;5070581;28;20032;-59
2023/09/09 00:15:54;;;;;;;15.18;13.63;;;23.00;99.90;;;;;;5071178;28;20043;-59
2023/09/09 00:18:20;;;;;;;15.10;13.60;;;23.00;99.90;;;;;;5071090;28;20047;-58
2023/09/09 00:20:46;;;;;;;16.90;15.02;;;22.90;99.90;;;;;;5070935;28;20036;-59
2023/09/09 00:23:12;;;;;;;15.55;13.88;;;22.90;99.90;;;;;;5071170;28;20384;-59
2023/09/09 00:25:42;;;;;;;16.20;14.70;;;22.80;99.90;;;;;;5069508;28;20082;-58
2023/09/09 00:28:11;;;;;;;16.15;14.55;;;22.80;99.90;;;;;;5070971;28;20120;-58
2023/09/09 00:30:36;;;;;;;17.05;15.27;;;22.70;99.90;;;;;;5070570;28;20597;-58
2023/09/09 00:33:03;;;;;;;16.30;14.63;;;22.80;99.90;;;;;;5071008;28;20031;-58
2023/09/09 00:35:32;;;;;;;16.73;15.10;;;22.70;99.90;;;;;;5070143;28;20047;-59
2023/09/09 00:37:58;;;;;;;17.27;15.48;;;22.70;99.90;;;;;;5069136;28;20052;-58
2023/09/09 00:40:24;;;;;;;17.58;15.55;;;22.60;99.90;;;;;;5070508;28;20542;-58
2023/09/09 00:42:50;;;;;;;17.17;15.48;;;22.60;99.90;;;;;;5069372;28;20087;-60
2023/09/09 00:45:16;;;;;;;16.27;14.55;;;22.60;99.90;;;;;;5069964;28;20033;-58
2023/09/09 00:47:42;;;;;;;17.80;15.90;;;22.50;99.90;;;;;;5070293;28;20483;-59
2023/09/09 00:50:13;;;;;;;17.27;15.27;;;22.50;99.90;;;;;;5069737;28;20049;-58
2023/09/09 00:52:41;;;;;;;18.23;16.33;;;22.50;99.90;;;;;;5070591;28;20101;-59
2023/09/09 00:55:08;;;;;;;16.40;14.80;;;22.40;99.90;;;;;;5070607;28;20036;-59
2023/09/09 00:57:34;;;;;;;17.67;15.98;;;22.40;99.90;;;;;;5070615;28;20511;-58
2023/09/09 01:00:03;;;;;;;17.38;15.80;;;22.40;99.90;;;;;;5071054;28;20040;-59
2023/09/09 01:02:30;;;;;;;18.88;16.98;;;22.40;99.90;;;;;;5070515;28;20043;-59
2023/09/09 01:04:59;;;;;;;17.02;15.35;;;22.30;99.90;;;;;;5070520;28;20151;-59
2023/09/09 01:07:26;;;;;;;19.45;17.55;;;22.30;99.90;;;;;;5070401;28;20033;-58
2023/09/09 01:09:52;;;;;;;17.90;16.17;;;22.20;99.90;;;;;;5070277;28;20114;-59
2023/09/09 01:12:18;;;;;;;18.42;16.48;;;22.20;99.90;;;;;;5073812;28;20039;-58
2023/09/09 01:14:44;;;;;;;17.77;16.08;;;22.10;99.90;;;;;;5074006;28;20051;-58
2023/09/09 01:17:10;;;;;;;18.95;17.15;;;22.10;99.90;;;;;;5073003;28;20048;-60
2023/09/09 01:19:36;;;;;;;18.00;16.25;;;22.10;99.90;;;;;;5074003;28;20037;-58
2023/09/09 01:22:10;;;;;;;18.45;16.65;;;22.10;99.90;;;;;;5074460;28;20040;-58
2023/09/09 01:24:38;;;;;;;;;;;22.00;99.90;;;;;;5072978;28;20071;-59
2023/09/09 01:27:04;;;;;;;17.05;15.27;;;21.90;99.90;;;;;;5072896;28;20327;-58
2023/09/09 01:29:30;;;;;;;17.40;15.60;;;21.80;99.90;;;;;;5074179;28;20028;-59
2023/09/09 01:31:56;;;;;;;20.05;17.55;;;21.80;99.90;;;;;;5074418;28;20028;-58
2023/09/09 01:34:21;;;;;;;17.65;15.85;;;21.80;99.90;;;;;;5073656;28;20072;-58
2023/09/09 01:36:47;;;;;;;17.60;15.90;;;21.80;99.90;;;;;;5073786;28;20032;-59
2023/09/09 01:39:13;;;;;;;18.85;16.90;;;21.80;99.90;;;;;;5073380;28;20040;-58
2023/09/09 01:41:39;;;;;;;21.35;19.05;;;21.70;99.90;;;;;;5073480;28;20396;-59
2023/09/09 01:44:05;;;;;;;19.83;17.70;;;21.70;99.90;;;;;;5072640;28;20587;-58
2023/09/09 01:46:31;;;;;;;19.17;17.17;;;21.70;99.90;;;;;;5073567;28;20124;-59
2023/09/09 01:48:57;;;;;;;20.98;18.88;;;21.60;99.90;;;;;;5073232;28;20116;-59
2023/09/09 01:51:23;;;;;;;20.67;18.52;;;21.60;99.90;;;;;;5073585;28;20056;-57
2023/09/09 01:53:49;;;;;;;19.75;17.85;;;21.60;99.90;;;;;;5072932;28;20040;-58
2023/09/09 01:56:14;;;;;;;20.65;18.65;;;21.60;99.90;;;;;;5072631;28;20044;-59
2023/09/09 01:58:40;;;;;;;20.63;18.60;;;21.50;99.90;;;;;;5073477;28;20119;-59
2023/09/09 02:01:06;;;;;;;21.00;18.80;;;21.50;99.90;;;;;;5073663;28;20067;-58
2023/09/09 02:03:31;;;;;;;22.55;18.73;;;21.40;99.90;;;;;;5072719;28;20040;-58
2023/09/09 02:05:58;;;;;;;21.20;19.00;;;21.40;99.90;;;;;;5073323;28;20036;-57
2023/09/09 02:08:23;;;;;;;20.15;18.13;;;21.30;99.90;;;;;;5073380;28;20040;-59
2023/09/09 02:10:50;;;;;;;19.70;17.90;;;21.30;99.90;;;;;;5073420;28;20043;-59
2023/09/09 02:13:16;;;;;;;20.30;18.40;;;21.30;99.90;;;;;;5072819;28;20028;-59
2023/09/09 02:15:42;;;;;;;21.30;19.20;;;21.20;99.90;;;;;;5072280;28;20040;-58
2023/09/09 02:18:08;;;;;;;22.60;20.45;;;21.20;99.90;;;;;;5071472;28;20130;-59
2023/09/09 02:20:33;;;;;;;22.42;20.27;;;21.20;99.90;;;;;;5071582;28;20062;-59
2023/09/09 02:22:59;;;;;;;23.55;21.27;;;21.20;99.90;;;;;;5070572;28;20040;-59
2023/09/09 02:25:25;;;;;;;24.13;21.80;;;21.10;99.90;;;;;;5072818;28;20040;-58
2023/09/09 02:27:50;;;;;;;23.58;21.35;;;21.20;99.90;;;;;;5072616;28;20063;-59
2023/09/09 02:30:16;;;;;;;21.65;19.55;;;21.10;99.90;;;;;;5072821;28;20476;-59
2023/09/09 02:32:43;;;;;;;23.90;21.42;;;21.00;99.90;;;;;;5073244;28;20032;-56
2023/09/09 02:35:10;;;;;;;24.45;22.00;;;20.90;99.90;;;;;;5072471;28;20128;-58
2023/09/09 02:37:36;;;;;;;23.75;21.35;;;20.90;99.90;;;;;;5070989;28;20059;-59
2023/09/09 02:40:03;;;;;;;23.58;21.13;;;20.80;99.90;;;;;;5071550;28;20044;-58
2023/09/09 02:42:29;;;;;;;21.80;19.60;;;20.80;99.90;;;;;;5072296;28;20044;-58
2023/09/09 02:44:55;;;;;;;21.40;19.40;;;20.80;99.90;;;;;;5071789;28;20047;-58
2023/09/09 02:47:21;;;;;;;22.15;19.83;;;20.80;99.90;;;;;;5072899;28;20492;-59
2023/09/09 02:49:49;;;;;;;22.77;20.58;;;20.80;99.90;;;;;;5070863;28;20047;-58
2023/09/09 02:52:15;;;;;;;22.73;20.38;;;20.70;99.90;;;;;;5072688;28;20052;-58
2023/09/09 02:54:41;;;;;;;21.85;19.75;;;20.70;99.90;;;;;;5071647;28;20081;-58
2023/09/09 02:57:07;;;;;;;21.50;19.42;;;20.60;99.90;;;;;;5072062;28;20079;-58
2023/09/09 02:59:33;;;;;;;23.52;21.13;;;20.70;99.90;;;;;;5071798;28;21178;-57
2023/09/09 03:02:00;;;;;;;22.85;20.45;;;20.60;99.90;;;;;;5072696;28;20506;-58
2023/09/09 03:04:26;;;;;;;22.50;20.40;;;20.60;99.90;;;;;;5072563;28;20387;-58
2023/09/09 03:06:51;;;;;;;21.13;19.13;;;20.60;99.90;;;;;;5072229;28;20034;-59
2023/09/09 03:09:17;;;;;;;21.10;19.00;;;20.60;99.90;;;;;;5071756;28;20032;-58
2023/09/09 03:11:43;;;;;;;22.02;19.73;;;20.50;99.90;;;;;;5071897;28;20047;-57
2023/09/09 03:14:09;;;;;;;23.13;20.95;;;20.60;99.90;;;;;;5071620;28;20090;-58
2023/09/09 03:16:36;;;;;;;23.48;21.20;;;20.60;99.90;;;;;;5071047;28;20039;-58
2023/09/09 03:19:02;;;;;;;22.05;19.85;;;20.50;99.90;;;;;;5071663;28;20036;-58
2023/09/09 03:21:28;;;;;;;20.88;18.88;;;20.50;99.90;;;;;;5072100;28;20553;-59
2023/09/09 03:23:54;;;;;;;22.23;20.00;;;20.50;99.90;;;;;;5071002;28;20070;-59
2023/09/09 03:26:22;;;;;;;21.67;19.55;;;20.40;99.90;;;;;;5070318;28;20095;-59
2023/09/09 03:28:49;;;;;;;21.92;19.95;;;20.40;99.90;;;;;;5071188;28;20406;-58
2023/09/09 03:31:15;;;;;;;21.70;19.60;;;20.40;99.90;;;;;;5071607;28;20041;-58
2023/09/09 03:33:40;;;;;;;23.10;20.65;;;20.40;99.90;;;;;;5070533;28;20032;-59
2023/09/09 03:36:07;;;;;;;24.02;21.73;;;20.30;99.90;;;;;;5071441;28;20047;-57
2023/09/09 03:38:34;;;;;;;24.20;21.90;;;20.40;99.90;;;;;;5071966;28;20495;-59
2023/09/09 03:41:00;;;;;;;22.20;20.00;;;20.40;99.90;;;;;;5071706;28;20487;-59
2023/09/09 03:43:25;;;;;;;23.83;21.55;;;20.30;99.90;;;;;;5071089;28;20059;-57
2023/09/09 03:45:55;;;;;;;24.17;21.70;;;20.30;99.90;;;;;;5070285;28;20120;-59
2023/09/09 03:48:20;;;;;;;22.80;20.50;;;20.30;99.90;;;;;;5071102;28;20109;-58
2023/09/09 03:50:46;;;;;;;23.95;21.55;;;20.30;99.90;;;;;;5071676;28;20468;-58
2023/09/09 03:53:12;;;;;;;22.10;20.00;;;20.30;99.90;;;;;;5070910;28;20048;-58
2023/09/09 03:55:37;;;;;;;21.83;19.50;;;20.20;99.90;;;;;;5070352;28;20407;-58
2023/09/09 03:58:03;;;;;;;20.95;18.98;;;20.20;99.90;;;;;;5071287;28;20051;-59
2023/09/09 04:00:29;;;;;;;22.17;19.98;;;20.20;99.90;;;;;;5071257;28;20492;-58
2023/09/09 04:02:54;;;;;;;20.80;18.70;;;20.10;99.90;;;;;;5070509;28;20059;-59
2023/09/09 04:05:20;;;;;;;21.33;19.23;;;20.10;99.90;;;;;;5070597;28;20137;-59
2023/09/09 04:07:46;;;;;;;20.83;18.73;;;20.00;99.90;;;;;;5071020;28;20481;-59
2023/09/09 04:10:12;;;;;;;20.50;18.55;;;20.00;99.90;;;;;;5071125;28;20032;-58
2023/09/09 04:12:38;;;;;;;21.15;19.05;;;20.00;99.90;;;;;;5070849;28;20123;-58
2023/09/09 04:15:06;;;;;;;22.15;19.85;;;20.00;99.90;;;;;;5070942;28;20147;-59
2023/09/09 04:17:32;;;;;;;21.73;19.42;;;19.90;99.90;;;;;;5070908;28;20047;-59
2023/09/09 04:19:57;;;;;;;21.55;19.38;;;19.90;99.90;;;;;;5070640;28;20036;-58
2023/09/09 04:22:23;;;;;;;22.60;20.33;;;19.90;99.90;;;;;;5070809;28;20037;-59
2023/09/09 04:24:49;;;;;;;24.17;19.45;;;19.80;99.90;;;;;;5070126;28;20116;-60
2023/09/09 04:27:15;;;;;;;21.40;19.33;;;19.80;99.90;;;;;;5070585;28;20115;-59
2023/09/09 04:29:41;;;;;;;22.05;19.95;;;19.80;99.90;;;;;;5070181;28;20105;-59
2023/09/09 04:32:06;;;;;;;22.63;20.23;;;19.70;99.90;;;;;;5069749;28;20472;-58
2023/09/09 04:34:32;;;;;;;21.02;19.02;;;19.70;99.90;;;;;;5070769;28;20123;-57
2023/09/09 04:36:58;;;;;;;21.95;19.85;;;19.70;99.90;;;;;;5069549;28;20032;-58
2023/09/09 04:39:23;;;;;;;22.30;20.10;;;19.60;99.90;;;;;;5069455;28;20040;-58
2023/09/09 04:41:49;;;;;;;22.55;20.27;;;19.60;99.90;;;;;;5070768;28;20048;-59
2023/09/09 04:44:15;;;;;;;23.48;21.05;;;19.60;99.90;;;;;;5070002;28;20471;-58
2023/09/09 04:46:40;;;;;;;23.88;21.48;;;19.50;99.90;;;;;;5070041;28;20131;-58
2023/09/09 04:49:06;;;;;;;25.40;22.95;;;19.60;99.90;;;;;;5070751;28;20037;-59
2023/09/09 04:51:32;;;;;;;24.08;21.73;;;19.50;99.90;;;;;;5070735;28;20098;-58
2023/09/09 04:53:57;;;;;;;23.40;21.00;;;19.50;99.90;;;;;;5070802;28;20115;-59
2023/09/09 04:56:23;;;;;;;23.35;21.05;;;19.50;99.90;;;;;;5070707;28;20040;-58
2023/09/09 04:58:49;;;;;;;23.35;21.02;;;19.50;99.90;;;;;;5069222;28;20513;-58
2023/09/09 05:01:15;;;;;;;23.55;21.13;;;19.40;99.90;;;;;;5070552;28;20043;-58
2023/09/09 05:03:41;;;;;;;24.48;22.17;;;19.50;99.90;;;;;;5070854;28;20115;-60
2023/09/09 05:06:07;;;;;;;24.70;22.30;;;19.40;99.90;;;;;;5069269;28;20047;-58
2023/09/09 05:08:33;;;;;;;23.88;21.67;;;19.40;99.90;;;;;;5070993;28;20421;-58
2023/09/09 05:10:58;;;;;;;23.45;21.10;;;19.40;99.90;;;;;;5070712;28;20099;-59
2023/09/09 05:13:25;;;;;;;25.58;23.00;;;19.40;99.90;;;;;;5070518;28;20544;-58
2023/09/09 05:15:51;;;;;;;24.40;21.70;;;19.40;99.90;;;;;;5070696;28;20047;-59
2023/09/09 05:18:17;;;;;;;22.83;20.67;;;19.40;99.90;;;;;;5070106;28;20058;-58
2023/09/09 05:20:43;;;;;;;23.42;21.00;;;19.40;99.90;;;;;;5070470;28;20084;-59
2023/09/09 05:23:09;;;;;;;22.35;20.25;;;19.30;99.90;;;;;;5070276;28;20036;-59
2023/09/09 05:25:35;;;;;;;24.23;21.80;;;19.30;99.90;;;;;;5068976;28;20047;-57
2023/09/09 05:28:00;;;;;;;25.45;22.95;;;19.30;99.90;;;;;;5070639;28;20029;-57
2023/09/09 05:30:26;;;;;;;24.48;22.15;;;19.30;99.90;;;;;;5070424;28;20063;-58
2023/09/09 05:32:52;;;;;;;27.33;24.52;;;19.30;99.90;;;;;;5070185;28;20036;-59
2023/09/09 05:35:18;;;;;;;26.75;24.08;;;19.30;99.90;;;;;;5070462;28;20040;-57
2023/09/09 05:37:45;;;;;;;24.10;21.67;;;19.30;99.90;;;;;;5070348;28;20053;-58
2023/09/09 05:40:11;;;;;;;25.52;21.70;;;19.30;99.90;;;;;;5070195;28;20053;-59
2023/09/09 05:42:37;;;;;;;25.27;22.73;;;19.30;99.90;;;;;;5069810;28;20063;-58
2023/09/09 05:45:04;;;;;;;22.77;20.58;;;19.30;99.90;;;;;;5068233;28;20422;-58
2023/09/09 05:47:30;;;;;;;22.38;20.27;;;19.30;99.90;;;;;;5069972;28;20035;-59
2023/09/09 05:49:55;;;;;;;24.63;22.40;;;19.20;99.90;;;;;;5068120;28;20040;-58
2023/09/09 05:52:21;;;;;;;25.25;22.90;;;19.30;99.90;;;;;;5069214;28;20075;-57
2023/09/09 05:54:47;;;;;;;27.02;24.33;;;19.30;99.90;;;;;;5069564;28;20045;-57
2023/09/09 05:57:12;;;;;;;26.35;23.75;;;19.30;99.90;;;;;;5070791;28;20044;-59
2023/09/09 05:59:39;;;;;;;26.98;24.38;;;19.40;99.90;;;;;;5072684;28;20123;-59
2023/09/09 06:02:06;;;;;;;28.77;25.73;;;19.30;99.90;;;;;;5073555;28;20075;-59
2023/09/09 06:04:31;;;;;;;31.10;27.90;;;19.40;99.90;;;;;;5072392;28;20055;-58
2023/09/09 06:06:57;;;;;;;31.75;28.48;;;19.30;99.90;;;;;;5073322;28;20487;-59
2023/09/09 06:09:23;;;;;;;30.48;27.58;;;19.40;99.90;;;;;;5072633;28;20049;-59
2023/09/09 06:11:50;;;;;;;30.67;27.50;;;19.40;99.90;;;;;;5070629;28;20392;-59
2023/09/09 06:14:16;;;;;;;30.63;27.60;;;19.40;99.90;;;;;;5070953;28;20036;-59
2023/09/09 06:16:41;;;;;;;33.13;29.70;;;19.50;99.90;;;;;;5072690;28;20059;-59
2023/09/09 06:19:07;;;;;;;36.90;33.22;;;19.50;99.90;;;;;;5071970;28;20407;-60
2023/09/09 06:21:33;;;;;;;36.17;32.78;;;19.50;99.90;;;;;;5070138;28;20048;-59
2023/09/09 06:23:59;;;;;;;35.20;31.77;;;19.60;99.90;;;;;;5071280;28;20365;-59
2023/09/09 06:26:30;;;;;;;35.03;31.48;;;19.60;99.90;;;;;;5073273;28;20495;-59
2023/09/09 06:28:56;;;;;;;35.17;31.52;;;19.60;99.90;;;;;;5072871;28;20036;-59
2023/09/09 06:31:22;;;;;;;35.45;31.77;;;19.60;99.90;;;;;;5073282;28;20434;-59
2023/09/09 06:33:47;;;;;;;34.30;30.90;;;19.60;99.90;;;;;;5072784;28;20112;-58
2023/09/09 06:36:13;;;;;;;34.70;31.30;;;19.70;99.90;;;;;;5071180;28;20604;-59
2023/09/09 06:38:39;;;;;;;34.80;31.40;;;19.70;99.90;;;;;;5071222;28;20040;-58
2023/09/09 06:41:05;;;;;;;33.45;30.25;;;19.60;99.90;;;;;;5071870;28;20649;-59
2023/09/09 06:43:30;;;;;;;34.13;30.92;;;19.60;99.90;;;;;;5069642;28;20055;-58
2023/09/09 06:45:57;;;;;;;36.00;32.45;;;19.70;99.90;;;;;;5068765;28;20048;-58
2023/09/09 06:48:23;;;;;;;35.47;31.98;;;19.70;99.90;;;;;;5061391;28;20032;-57
2023/09/09 06:50:49;;;;;;;34.53;31.13;;;19.70;99.90;;;;;;5063572;28;20040;-60
2023/09/09 06:53:15;;;;;;;37.85;34.05;;;19.80;99.90;;;;;;5090440;28;20040;-58
2023/09/09 06:55:44;;;;;;;39.08;34.20;;;19.80;99.90;;;;;;5062929;28;20033;-60
2023/09/09 06:58:12;;;;;;;39.70;35.13;;;19.90;99.90;;;;;;5062442;28;20038;-59
2023/09/09 07:00:38;;;;;;;40.75;35.25;;;19.90;99.90;;;;;;5063902;28;20044;-59
2023/09/09 07:03:05;;;;;;;49.20;39.00;;;20.00;99.90;;;;;;5064256;28;20040;-58
2023/09/09 07:05:34;;;;;;;49.30;39.75;;;20.10;99.90;;;;;;5062791;28;20052;-59
2023/09/09 07:08:00;;;;;;;78.78;44.28;;;20.10;99.90;;;;;;5063718;28;20041;-59
2023/09/09 07:10:26;;;;;;;91.13;42.83;;;20.10;99.90;;;;;;5061063;28;20075;-60
2023/09/09 07:12:52;;;;;;;182.60;41.60;;;20.20;99.90;;;;;;5062426;28;20123;-59
2023/09/09 07:15:18;;;;;;;128.60;41.33;;;20.10;99.90;;;;;;5062042;28;20040;-58
2023/09/09 07:17:47;;;;;;;80.50;45.00;;;20.10;99.90;;;;;;5063220;28;20086;-59
2023/09/09 07:20:13;;;;;;;83.10;42.30;;;20.10;99.90;;;;;;5064034;28;20025;-58
2023/09/09 07:22:39;;;;;;;67.57;40.95;;;20.00;99.90;;;;;;5063983;28;20051;-59
2023/09/09 07:25:08;;;;;;;102.20;40.33;;;20.20;99.90;;;;;;5033441;28;20040;-59
2023/09/09 07:27:34;;;;;;;75.65;43.50;;;20.10;99.90;;;;;;5082018;28;20483;-57
2023/09/09 07:30:00;;;;;;;202.68;49.17;;;20.10;99.90;;;;;;5051843;28;20114;-59
2023/09/09 07:32:26;;;;;;;160.50;47.20;;;20.20;99.90;;;;;;5050052;28;20087;-58
2023/09/09 07:34:51;;;;;;;56.40;41.47;;;20.20;99.90;;;;;;5054796;28;20046;-60
2023/09/09 07:37:17;;;;;;;83.13;45.25;;;20.30;99.90;;;;;;5052009;28;20122;-59
2023/09/09 07:39:53;;;;;;;48.13;40.20;;;20.30;99.90;;;;;;5061272;28;20032;-60
2023/09/09 07:42:19;;;;;;;54.20;39.05;;;20.30;99.90;;;;;;5062226;28;20467;-59
2023/09/09 07:44:45;;;;;;;50.05;40.45;;;20.40;99.90;;;;;;5063368;28;20048;-59
2023/09/09 07:47:12;;;;;;;46.47;41.42;;;20.60;99.90;;;;;;5062434;28;20040;-59
2023/09/09 07:49:37;;;;;;;66.90;40.60;;;20.70;99.90;;;;;;5064084;28;20177;-59
2023/09/09 07:52:04;;;;;;;141.68;48.97;;;20.80;99.90;;;;;;5063536;28;20514;-59
2023/09/09 07:54:30;;;;;;;63.05;38.97;;;20.90;99.90;;;;;;5062383;28;20037;-59
2023/09/09 07:56:58;;;;;;;52.70;42.28;;;20.90;99.90;;;;;;5063126;28;20028;-59
2023/09/09 07:59:28;;;;;;;50.80;43.30;;;20.80;99.90;;;;;;5061712;28;20040;-58
2023/09/09 08:01:54;;;;;;;51.53;41.00;;;20.90;99.90;;;;;;5062038;28;20460;-59
2023/09/09 08:04:20;;;;;;;53.13;39.42;;;20.90;99.90;;;;;;5061717;28;20032;-58
2023/09/09 08:06:46;;;;;;;44.33;39.58;;;21.00;99.90;;;;;;5062212;28;20472;-57
2023/09/09 08:09:13;;;;;;;42.72;38.13;;;21.10;99.90;;;;;;5061816;28;20028;-58
2023/09/09 08:11:38;;;;;;;44.53;39.97;;;21.10;99.90;;;;;;5060345;28;20089;-59
2023/09/09 08:14:04;;;;;;;42.00;37.60;;;21.20;99.90;;;;;;5058107;28;20136;-57
2023/09/09 08:16:30;;;;;;;43.70;39.10;;;21.30;99.90;;;;;;5062169;28;20033;-58
2023/09/09 08:18:57;;;;;;;45.40;40.50;;;21.40;99.90;;;;;;5062041;28;20079;-59
2023/09/09 08:21:23;;;;;;;43.60;39.10;;;21.30;99.90;;;;;;5062548;28;20464;-60
2023/09/09 08:23:49;;;;;;;44.90;40.20;;;21.30;99.90;;;;;;5061830;28;20036;-60
2023/09/09 08:26:15;;;;;;;44.03;39.22;;;21.30;99.90;;;;;;5062638;28;20118;-59
2023/09/09 08:28:41;;;;;;;46.53;41.50;;;21.40;99.90;;;;;;5062091;28;20033;-59
2023/09/09 08:31:06;;;;;;;47.13;42.03;;;21.60;99.90;;;;;;5059157;28;20430;-59
2023/09/09 08:33:32;;;;;;;49.63;44.47;;;21.60;99.90;;;;;;5060500;28;20040;-59
2023/09/09 08:35:59;;;;;;;51.33;45.85;;;21.70;99.90;;;;;;5060409;28;20036;-59
2023/09/09 08:38:24;;;;;;;47.88;42.63;;;21.70;99.90;;;;;;5060446;28;20093;-60
2023/09/09 08:41:11;;;;;;;49.25;44.15;;;21.70;99.90;;;;;;5059668;28;20471;-59
2023/09/09 08:44:03;;;;;;;46.45;41.60;;;21.90;99.90;;;;;;5058995;28;20075;-59
2023/09/09 08:46:29;;;;;;;45.58;40.97;;;22.00;99.90;;;;;;5061017;28;20057;-58
2023/09/09 08:48:57;;;;;;;47.17;42.38;;;22.00;99.90;;;;;;5061027;28;20443;-58
2023/09/09 08:51:31;;;;;;;48.20;42.97;;;22.20;99.90;;;;;;5061201;28;20037;-59
2023/09/09 08:53:57;;;;;;;46.42;41.65;;;22.30;99.90;;;;;;5061186;28;20112;-58
2023/09/09 08:56:24;;;;;;;50.45;45.05;;;22.30;99.90;;;;;;5061731;28;20048;-59
2023/09/09 08:58:49;;;;;;;50.67;45.47;;;22.40;99.90;;;;;;5061622;28;20111;-59
2023/09/09 09:01:16;;;;;;;51.92;46.55;;;22.50;99.90;;;;;;5060393;28;20131;-59
2023/09/09 09:03:44;;;;;;;51.03;45.67;;;22.50;99.90;;;;;;5060027;28;20109;-60
2023/09/09 09:06:10;;;;;;;49.33;44.30;;;22.60;99.90;;;;;;5060534;28;20102;-59
2023/09/09 09:08:36;;;;;;;48.25;43.35;;;22.60;99.90;;;;;;5042229;28;20037;-58
2023/09/09 09:11:03;;;;;;;48.05;43.00;;;22.80;99.90;;;;;;5060351;28;20025;-59
2023/09/09 09:13:33;;;;;;;49.05;43.78;;;23.00;99.90;;;;;;5061170;28;20033;-59
2023/09/09 09:16:00;;;;;;;48.22;43.17;;;23.10;99.90;;;;;;5057495;28;20043;-60
2023/09/09 09:18:26;;;;;;;44.70;40.30;;;23.20;99.90;;;;;;5058145;28;20123;-57
2023/09/09 09:20:53;;;;;;;46.67;41.90;;;23.30;99.90;;;;;;5055896;28;20384;-58
2023/09/09 09:23:18;;;;;;;46.00;41.05;;;23.50;99.90;;;;;;5054450;28;20050;-57
2023/09/09 09:25:47;;;;;;;44.88;40.30;;;23.70;99.90;;;;;;5054720;28;20045;-60
2023/09/09 09:28:16;;;;;;;44.85;40.25;;;23.90;99.90;;;;;;5054651;28;20041;-58
2023/09/09 09:30:42;;;;;;;45.33;40.53;;;24.10;99.90;;;;;;5058899;28;20032;-60
2023/09/09 09:33:09;;;;;;;47.88;42.78;;;24.20;99.90;;;;;;5061316;28;20041;-59
2023/09/09 09:35:38;;;;;;;43.50;38.88;;;24.30;99.90;;;;;;5059148;28;20365;-60
2023/09/09 09:38:18;;;;;;;48.60;43.47;;;24.50;99.90;;;;;;5059935;28;20051;-59
2023/09/09 09:40:44;;;;;;;45.28;40.50;;;24.70;99.90;;;;;;5058341;28;21393;-59
2023/09/09 09:43:23;;;;;;;45.08;40.28;;;24.80;99.90;;;;;;5059428;28;20621;-59
2023/09/09 09:45:49;;;;;;;49.15;43.95;;;24.90;99.90;;;;;;5064522;28;20055;-59
2023/09/09 09:48:27;;;;;;;46.30;41.30;;;25.10;99.90;;;;;;5055597;28;21216;-60
2023/09/09 09:50:53;;;;;;;47.78;42.00;;;25.10;99.90;;;;;;5054071;28;20040;-58
2023/09/09 09:53:19;;;;;;;49.22;42.63;;;25.30;99.90;;;;;;5057156;28;20068;-59
2023/09/09 09:55:46;;;;;;;44.80;39.83;;;25.30;99.90;;;;;;5056572;28;20082;-58
2023/09/09 09:58:13;;;;;;;52.35;42.17;;;25.40;99.90;;;;;;5057888;28;20063;-59
2023/09/09 10:00:39;;;;;;;52.50;44.67;;;25.50;99.90;;;;;;5049462;28;20048;-59
2023/09/09 10:03:06;;;;;;;56.10;46.30;;;25.60;99.90;;;;;;5055500;28;20036;-57
2023/09/09 10:05:33;;;;;;;56.53;48.42;;;25.60;99.90;;;;;;5052091;28;20044;-60
2023/09/09 10:08:29;;;;;;;56.88;47.20;;;25.70;99.90;;;;;;5064679;28;20059;-59
2023/09/09 10:11:10;;;;;;;53.75;45.95;;;25.80;99.90;;;;;;5069650;28;20071;-59
2023/09/09 10:13:48;;;;;;;47.45;38.17;;;25.90;99.90;;;;;;5069404;28;20086;-59
2023/09/09 10:16:15;;;;;;;54.38;42.53;;;25.90;99.90;;;;;;5070947;28;20494;-59
2023/09/09 10:18:41;;;;;;;59.03;43.45;;;26.00;99.90;;;;;;5070840;28;20448;-59
2023/09/09 10:21:09;;;;;;;41.53;32.83;;;26.00;99.90;;;;;;5070672;28;20036;-59
2023/09/09 10:23:36;;;;;;;59.03;44.28;;;26.10;99.90;;;;;;5071735;28;20086;-59
2023/09/09 10:26:03;;;;;;;63.83;44.90;;;26.20;99.90;;;;;;5070767;28;20049;-58
2023/09/09 10:28:30;;;;;;;56.83;43.83;;;26.30;99.90;;;;;;5070286;28;20043;-59
2023/09/09 10:30:58;;;;;;;56.30;42.00;;;26.40;99.90;;;;;;5071192;28;20098;-59
2023/09/09 10:33:27;;;;;;;51.58;38.60;;;26.40;99.90;;;;;;5067829;28;20075;-59
2023/09/09 10:35:54;;;;;;;45.28;34.17;;;26.50;99.90;;;;;;5070394;28;20083;-60
2023/09/09 10:38:21;;;;;;;47.10;34.75;;;26.60;99.90;;;;;;5070859;28;20043;-59
2023/09/09 10:40:48;;;;;;;46.90;35.00;;;26.60;99.90;;;;;;5069386;28;20044;-59
2023/09/09 10:43:14;;;;;;;38.80;30.52;;;26.70;99.90;;;;;;5069549;28;20146;-58
2023/09/09 10:45:41;;;;;;;35.38;27.45;;;26.80;99.90;;;;;;5069257;28;20049;-59
2023/09/09 10:48:10;;;;;;;27.80;21.05;;;26.90;99.90;;;;;;5069580;28;20036;-59
2023/09/09 10:50:47;;;;;;;13.55;12.00;;;27.10;99.90;;;;;;5071350;28;20040;-58
2023/09/09 10:53:26;;;;;;;13.07;9.75;;;27.10;99.90;;;;;;5071245;28;20372;-60
2023/09/09 10:55:58;;;;;;;10.45;8.30;;;27.10;99.90;;;;;;5071218;28;20037;-58
2023/09/09 10:58:34;;;;;;;10.45;8.38;;;27.20;99.90;;;;;;5070963;28;20102;-57
2023/09/09 11:01:00;;;;;;;13.27;8.45;;;27.30;99.90;;;;;;5070537;28;20044;-59
2023/09/09 11:03:37;;;;;;;7.57;6.72;;;27.40;99.90;;;;;;5070278;28;20036;-57
2023/09/09 11:06:10;;;;;;;9.52;6.60;;;27.50;99.90;;;;;;5070292;28;20036;-58
2023/09/09 11:08:41;;;;;;;9.07;7.57;;;27.60;99.90;;;;;;5048303;28;20041;-58
2023/09/09 11:11:17;;;;;;;10.02;7.15;;;27.70;99.90;;;;;;5065277;28;20404;-59
2023/09/09 11:14:02;;;;;;;10.10;7.20;;;27.80;99.90;;;;;;5067348;28;20039;-60
2023/09/09 11:16:41;;;;;;;11.50;7.65;;;27.90;99.90;;;;;;5071028;28;20128;-60
2023/09/09 11:19:10;;;;;;;11.10;8.02;;;28.00;99.90;;;;;;5070174;28;20124;-60
2023/09/09 11:21:47;;;;;;;9.57;7.32;;;28.00;99.90;;;;;;5071091;28;20032;-59
2023/09/09 11:24:13;;;;;;;10.68;6.88;;;28.10;99.90;;;;;;5069841;28;20040;-59
2023/09/09 11:26:44;;;;;;;13.20;9.10;;;28.20;99.90;;;;;;5071100;28;20097;-59
2023/09/09 11:29:11;;;;;;;10.15;8.02;;;28.30;99.90;;;;;;5071295;28;20374;-58
2023/09/09 11:31:37;;;;;;;10.85;8.88;;;28.40;99.90;;;;;;5071099;28;20040;-58
2023/09/09 11:34:03;;;;;;;10.77;7.50;;;28.60;99.90;;;;;;5070963;28;20035;-59
2023/09/09 11:36:29;;;;;;;12.95;8.73;;;28.60;99.90;;;;;;5069559;28;20036;-59
2023/09/09 11:39:00;;;;;;;12.93;8.70;;;28.80;99.90;;;;;;5070193;28;20044;-58
2023/09/09 11:41:28;;;;;;;12.55;8.52;;;28.90;99.90;;;;;;5071280;28;20040;-60
2023/09/09 11:44:09;;;;;;;11.95;8.57;;;28.90;99.90;;;;;;5070306;28;20083;-59
2023/09/09 11:46:43;;;;;;;10.00;7.68;;;28.90;99.90;;;;;;5071589;28;20048;-59
2023/09/09 11:49:11;;;;;;;10.80;8.15;;;29.00;99.90;;;;;;5071233;28;20373;-59
2023/09/09 11:51:38;;;;;;;10.82;8.80;;;29.10;99.90;;;;;;5070673;28;20040;-59
2023/09/09 11:54:06;;;;;;;11.07;9.77;;;29.20;99.90;;;;;;5070973;28;20438;-59
2023/09/09 11:56:33;;;;;;;12.57;9.13;;;29.20;99.90;;;;;;5071512;28;20495;-61
2023/09/09 11:59:05;;;;;;;10.63;8.45;;;29.30;99.90;;;;;;5068849;28;20075;-59
2023/09/09 12:01:43;;;;;;;12.35;8.38;;;29.40;99.90;;;;;;5071415;28;20043;-60
2023/09/09 12:04:09;;;;;;;8.80;7.75;;;29.60;99.90;;;;;;5070924;28;20037;-60
2023/09/09 12:06:36;;;;;;;9.43;7.05;;;29.70;99.90;;;;;;5071214;28;20040;-60
2023/09/09 12:09:05;;;;;;;10.38;8.30;;;29.80;99.90;;;;;;5084037;28;20040;-59
2023/09/09 12:11:32;;;;;;;10.57;7.25;;;29.90;99.90;;;;;;5071705;28;20036;-60
2023/09/09 12:14:00;;;;;;;10.40;6.80;;;30.00;99.90;;;;;;5068885;28;20133;-59
2023/09/09 12:16:34;;;;;;;9.73;7.35;;;30.00;99.90;;;;;;5068659;28;20047;-58
2023/09/09 12:19:00;;;;;;;12.63;7.50;;;30.10;99.90;;;;;;5068407;28;20119;-60
2023/09/09 12:21:26;;;;;;;12.48;6.88;;;30.20;99.90;;;;;;5070314;28;20118;-60
2023/09/09 12:23:59;;;;;;;10.75;5.40;;;30.30;99.90;;;;;;5070269;28;20040;-60
2023/09/09 12:26:26;;;;;;;9.13;5.88;;;30.30;99.90;;;;;;5070068;28;20417;-61
2023/09/09 12:29:09;;;;;;;8.88;5.90;;;30.30;99.90;;;;;;5069836;28;20040;-60